Time;durP1;ratioP1;P1;durP2;ratioP2;P2;SDS_P1;SDS_P2;PMS_P1;PMS_P2;Temp;Humidity;BMP_temperature;BMP_pressure;BME280_temperature;BME280_humidity;BME280_pressure;Samples;Min_cycle;Max_cycle;Signal;HPM_P1;HPM_P2
2023/02/26 00:01:49;;;;;;;14.73;4.40;;;;;;;;;;5011320;28;20057;-65
2023/02/26 00:04:16;;;;;;;9.40;4.05;;;;;;;;;;5012942;28;20049;-66
2023/02/26 00:06:51;;;;;;;10.48;3.83;;;;;;;;;;5011098;28;20124;-67
2023/02/26 00:09:18;;;;;;;6.40;3.20;;;;;;;;;;5013239;28;20051;-66
2023/02/26 00:11:45;;;;;;;8.73;4.57;;;;;;;;;;5012381;28;20127;-66
2023/02/26 00:14:13;;;;;;;8.63;4.65;;;;;;;;;;5010264;28;20037;-65
2023/02/26 00:16:40;;;;;;;8.98;3.88;;;;;;;;;;5012836;28;20168;-65
2023/02/26 00:19:08;;;;;;;7.47;3.97;;;;;;;;;;5012139;28;20108;-65
2023/02/26 00:21:35;;;;;;;12.30;3.80;;;;;;;;;;5011069;28;20140;-66
2023/02/26 00:24:05;;;;;;;9.77;3.58;;;;;;;;;;5009990;28;20073;-66
2023/02/26 00:26:32;;;;;;;13.90;4.18;;;;;;;;;;5011425;28;20675;-66
2023/02/26 00:28:59;;;;;;;6.05;2.90;;;;;;;;;;5012698;28;20046;-66
2023/02/26 00:31:26;;;;;;;7.93;3.10;;;;;;;;;;5011225;28;20060;-65
2023/02/26 00:33:55;;;;;;;10.35;3.60;;;;;;;;;;5010825;28;20629;-66
2023/02/26 00:36:33;;;;;;;10.55;3.45;;;;;;;;;;5012003;28;20048;-66
2023/02/26 00:39:00;;;;;;;9.70;3.55;;;;;;;;;;5013323;28;20060;-65
2023/02/26 00:41:27;;;;;;;7.43;3.60;;;;;;;;;;5011195;28;20044;-65
2023/02/26 00:43:53;;;;;;;6.63;3.83;;;;;;;;;;5012863;28;20053;-67
2023/02/26 00:46:26;;;;;;;8.10;3.92;;;;;;;;;;5013327;28;20038;-69
2023/02/26 00:48:58;;;;;;;14.02;6.47;;;;;;;;;;5014692;28;20045;-68
2023/02/26 00:51:33;;;;;;;16.00;5.90;;;;;;;;;;5016749;28;20049;-66
2023/02/26 00:54:07;;;;;;;16.73;7.15;;;;;;;;;;5014419;28;20045;-63
2023/02/26 00:56:33;;;;;;;7.82;3.22;;;;;;;;;;5013435;28;20041;-66
2023/02/26 00:59:00;;;;;;;10.40;3.60;;;;;;;;;;5012920;28;20093;-63
2023/02/26 01:01:27;;;;;;;8.95;4.05;;;;;;;;;;5012347;28;20041;-63
2023/02/26 01:03:54;;;;;;;8.65;3.83;;;;;;;;;;5011492;28;20498;-64
2023/02/26 01:06:21;;;;;;;7.55;3.40;;;;;;;;;;5009952;28;20044;-64
2023/02/26 01:08:54;;;;;;;10.20;4.10;;;;;;;;;;5011568;28;20115;-62
2023/02/26 01:11:20;;;;;;;;;;;;;;;;;;5012407;28;20637;-64
2023/02/26 01:13:47;;;;;;;9.07;3.53;;;;;;;;;;5009638;28;20028;-63
2023/02/26 01:16:17;;;;;;;11.85;3.50;;;;;;;;;;5014436;28;20037;-63
2023/02/26 01:18:46;;;;;;;7.03;3.58;;;;;;;;;;5012107;28;20048;-63
2023/02/26 01:21:17;;;;;;;8.23;3.10;;;;;;;;;;5010138;28;20240;-66
2023/02/26 01:23:46;;;;;;;6.00;3.40;;;;;;;;;;5011122;28;20144;-64
2023/02/26 01:26:19;;;;;;;9.13;4.18;;;;;;;;;;5010317;28;20033;-65
2023/02/26 01:28:46;;;;;;;6.30;3.40;;;;;;;;;;5022968;28;20086;-65
2023/02/26 01:31:30;;;;;;;12.10;3.28;;;;;;;;;;5030922;28;20130;-66
2023/02/26 01:34:00;;;;;;;7.25;3.28;;;;;;;;;;5016322;28;20136;-67
2023/02/26 01:36:30;;;;;;;10.55;3.70;;;;;;;;;;5017777;28;20079;-66
2023/02/26 01:39:06;;;;;;;10.73;4.20;;;;;;;;;;5032547;28;20128;-63
2023/02/26 01:41:36;;;;;;;9.85;4.05;;;;;;;;;;5032075;28;20044;-65
2023/02/26 01:44:05;;;;;;;8.38;3.88;;;;;;;;;;5031233;28;20045;-64
2023/02/26 01:46:56;;;;;;;10.63;4.30;;;;;;;;;;5030744;28;20045;-66
2023/02/26 01:49:23;;;;;;;10.93;4.95;;;;;;;;;;5032363;28;20037;-66
2023/02/26 01:51:51;;;;;;;11.32;4.22;;;;;;;;;;5031211;28;20128;-65
2023/02/26 01:54:19;;;;;;;10.68;4.93;;;;;;;;;;5030116;28;20060;-65
2023/02/26 01:56:48;;;;;;;10.63;4.65;;;;;;;;;;5029369;28;20063;-65
2023/02/26 01:59:15;;;;;;;13.02;5.30;;;;;;;;;;5030489;28;20449;-66
2023/02/26 02:01:42;;;;;;;8.73;4.45;;;;;;;;;;5021317;28;20530;-67
2023/02/26 02:04:11;;;;;;;12.52;4.75;;;;;;;;;;5030350;28;20053;-65
2023/02/26 02:06:38;;;;;;;10.43;4.57;;;;;;;;;;5027931;28;20400;-64
2023/02/26 02:09:05;;;;;;;12.02;4.15;;;;;;;;;;5032214;28;20658;-65
2023/02/26 02:11:32;;;;;;;9.80;4.57;;;;;;;;;;5030453;28;20043;-64
2023/02/26 02:14:19;;;;;;;17.42;7.80;;;;;;;;;;5029139;28;20067;-65
2023/02/26 02:16:48;;;;;;;11.52;5.45;;;;;;;;;;5029859;28;20040;-65
2023/02/26 02:19:30;;;;;;;9.02;4.78;;;;;;;;;;5031563;28;20083;-65
2023/02/26 02:22:15;;;;;;;10.98;4.60;;;;;;;;;;5030094;28;20446;-65
2023/02/26 02:24:45;;;;;;;9.00;3.95;;;;;;;;;;5028908;28;20041;-66
2023/02/26 02:27:44;;;;;;;16.40;5.10;;;;;;;;;;5029567;28;20132;-66
2023/02/26 02:30:23;;;;;;;9.10;4.72;;;;;;;;;;4983859;28;20037;-65
2023/02/26 02:33:20;;;;;;;14.95;4.68;;;;;;;;;;5011726;28;20046;-65
2023/02/26 02:35:56;;;;;;;12.63;4.15;;;;;;;;;;5012899;28;20231;-65
2023/02/26 02:38:33;;;;;;;10.98;4.35;;;;;;;;;;5030398;28;20037;-64
2023/02/26 02:41:07;;;;;;;9.25;4.75;;;;;;;;;;5033684;28;20041;-64
2023/02/26 02:43:33;;;;;;;;;;;;;;;;;;5032178;28;20519;-65
2023/02/26 02:46:03;;;;;;;12.10;4.80;;;;;;;;;;5032422;28;19928;-65
2023/02/26 02:48:32;;;;;;;11.38;4.82;;;;;;;;;;5030106;28;20221;-66
2023/02/26 02:51:04;;;;;;;14.52;4.63;;;;;;;;;;5031051;28;20033;-63
2023/02/26 02:53:35;;;;;;;12.52;4.25;;;;;;;;;;5029479;28;20041;-66
2023/02/26 02:56:07;;;;;;;9.57;4.22;;;;;;;;;;5030528;28;20068;-65
2023/02/26 02:58:37;;;;;;;13.93;5.55;;;;;;;;;;5029383;28;20037;-64
2023/02/26 03:01:06;;;;;;;10.70;4.88;;;;;;;;;;5030343;28;20037;-64
2023/02/26 03:03:35;;;;;;;8.98;4.53;;;;;;;;;;5028762;28;20061;-64
2023/02/26 03:06:02;;;;;;;20.25;6.28;;;;;;;;;;5021856;28;20137;-64
2023/02/26 03:08:31;;;;;;;10.45;5.13;;;;;;;;;;5034533;28;20575;-64
2023/02/26 03:10:58;;;;;;;10.73;4.43;;;;;;;;;;5033884;28;20171;-64
2023/02/26 03:13:25;;;;;;;14.18;5.13;;;;;;;;;;5032601;28;20490;-63
2023/02/26 03:16:00;;;;;;;8.77;4.35;;;;;;;;;;5033948;28;20054;-65
2023/02/26 03:18:29;;;;;;;9.70;4.18;;;;;;;;;;5015289;28;20048;-66
2023/02/26 03:21:00;;;;;;;9.10;4.47;;;;;;;;;;5042566;28;20048;-66
2023/02/26 03:23:33;;;;;;;9.40;4.82;;;;;;;;;;5039928;28;20202;-66
2023/02/26 03:26:22;;;;;;;15.50;5.20;;;;;;;;;;5037851;28;20413;-66
2023/02/26 03:28:59;;;;;;;11.27;4.85;;;;;;;;;;5024085;28;20528;-64
2023/02/26 03:31:26;;;;;;;9.95;4.50;;;;;;;;;;5027309;28;20045;-64
2023/02/26 03:34:06;;;;;;;11.50;4.85;;;;;;;;;;5034575;28;20040;-66
2023/02/26 03:36:37;;;;;;;10.45;5.00;;;;;;;;;;5035843;28;20048;-65
2023/02/26 03:39:25;;;;;;;16.98;6.00;;;;;;;;;;5036238;28;20037;-63
2023/02/26 03:41:52;;;;;;;11.10;5.63;;;;;;;;;;5035674;28;20619;-63
2023/02/26 03:44:23;;;;;;;12.38;5.18;;;;;;;;;;5034630;28;20052;-64
2023/02/26 03:46:52;;;;;;;10.25;5.00;;;;;;;;;;5023490;28;20128;-65
2023/02/26 03:49:22;;;;;;;15.15;5.95;;;;;;;;;;5015963;28;20151;-65
2023/02/26 03:51:48;;;;;;;12.18;4.78;;;;;;;;;;5015394;28;20177;-67
2023/02/26 03:54:23;;;;;;;11.25;5.97;;;;;;;;;;5015677;28;20136;-64
2023/02/26 03:56:49;;;;;;;10.13;5.70;;;;;;;;;;5023584;28;20040;-64
2023/02/26 03:59:17;;;;;;;16.15;5.88;;;;;;;;;;5016110;28;20037;-65
2023/02/26 04:02:01;;;;;;;9.35;5.18;;;;;;;;;;5018343;28;20102;-65
2023/02/26 04:04:46;;;;;;;14.80;6.93;;;;;;;;;;5036861;28;20048;-65
2023/02/26 04:07:13;;;;;;;20.35;5.97;;;;;;;;;;5035292;28;20163;-68
2023/02/26 04:09:41;;;;;;;11.23;5.65;;;;;;;;;;5034560;28;20056;-65
2023/02/26 04:12:08;;;;;;;11.10;5.75;;;;;;;;;;5016551;28;20049;-66
2023/02/26 04:14:34;;;;;;;15.07;6.22;;;;;;;;;;5033348;28;20190;-65
2023/02/26 04:17:01;;;;;;;13.52;5.72;;;;;;;;;;5034375;28;20167;-64
2023/02/26 04:19:27;;;;;;;13.73;5.70;;;;;;;;;;5033045;28;20044;-65
2023/02/26 04:21:54;;;;;;;13.13;5.90;;;;;;;;;;5033810;28;20456;-64
2023/02/26 04:24:21;;;;;;;16.70;4.68;;;;;;;;;;5032833;28;21006;-63
2023/02/26 04:26:47;;;;;;;17.40;5.53;;;;;;;;;;5033815;28;20068;-66
2023/02/26 04:29:14;;;;;;;15.30;5.85;;;;;;;;;;5033253;28;20044;-66
2023/02/26 04:31:41;;;;;;;10.38;4.93;;;;;;;;;;5033510;28;20434;-65
2023/02/26 04:34:08;;;;;;;11.20;5.15;;;;;;;;;;5011322;28;21639;-65
2023/02/26 04:36:34;;;;;;;14.77;5.53;;;;;;;;;;5031402;28;20511;-66
2023/02/26 04:39:01;;;;;;;13.38;6.10;;;;;;;;;;5029376;28;20047;-65
2023/02/26 04:41:28;;;;;;;12.70;5.22;;;;;;;;;;5025038;28;20033;-66
2023/02/26 04:43:54;;;;;;;10.75;5.78;;;;;;;;;;5032398;28;20049;-65
2023/02/26 04:46:21;;;;;;;9.73;4.82;;;;;;;;;;5031964;28;20064;-64
2023/02/26 04:48:48;;;;;;;12.90;5.50;;;;;;;;;;5031633;28;20095;-67
2023/02/26 04:51:14;;;;;;;13.30;5.20;;;;;;;;;;5033012;28;20456;-65
2023/02/26 04:53:41;;;;;;;16.42;5.15;;;;;;;;;;5021969;28;20057;-64
2023/02/26 04:56:08;;;;;;;8.55;4.63;;;;;;;;;;5033075;28;20036;-68
2023/02/26 04:58:34;;;;;;;12.35;5.35;;;;;;;;;;5029809;28;20116;-66
2023/02/26 05:01:01;;;;;;;8.68;4.82;;;;;;;;;;5031532;28;20124;-65
2023/02/26 05:03:28;;;;;;;15.68;5.72;;;;;;;;;;5028257;28;20179;-67
2023/02/26 05:05:54;;;;;;;9.88;5.07;;;;;;;;;;5032790;28;20460;-66
2023/02/26 05:08:21;;;;;;;9.80;4.82;;;;;;;;;;5029978;28;20048;-64
2023/02/26 05:10:48;;;;;;;8.70;4.63;;;;;;;;;;5031114;28;20037;-65
2023/02/26 05:13:14;;;;;;;21.42;5.72;;;;;;;;;;5028879;28;20111;-66
2023/02/26 05:15:41;;;;;;;8.82;4.78;;;;;;;;;;5031774;28;20049;-65
2023/02/26 05:18:08;;;;;;;16.42;4.40;;;;;;;;;;5031533;28;20041;-67
2023/02/26 05:20:34;;;;;;;13.05;5.60;;;;;;;;;;5030403;28;20669;-66
2023/02/26 05:23:01;;;;;;;12.10;6.10;;;;;;;;;;5012896;28;20148;-67
2023/02/26 05:25:28;;;;;;;14.75;5.22;;;;;;;;;;5031188;28;20161;-67
2023/02/26 05:27:55;;;;;;;15.35;5.53;;;;;;;;;;5030815;28;20342;-65
2023/02/26 05:30:21;;;;;;;14.70;5.40;;;;;;;;;;5031013;28;20400;-64
2023/02/26 05:32:48;;;;;;;10.57;5.35;;;;;;;;;;5030663;28;20052;-64
2023/02/26 05:35:14;;;;;;;14.80;5.90;;;;;;;;;;5031710;28;20621;-65
2023/02/26 05:37:41;;;;;;;9.00;5.50;;;;;;;;;;5029950;28;20064;-64
2023/02/26 05:40:12;;;;;;;9.25;4.50;;;;;;;;;;5030804;28;20496;-65
2023/02/26 05:42:42;;;;;;;8.90;4.38;;;;;;;;;;5030733;28;20045;-63
2023/02/26 05:45:08;;;;;;;8.90;4.47;;;;;;;;;;5019823;28;20085;-66
2023/02/26 05:47:35;;;;;;;9.48;5.28;;;;;;;;;;5030994;28;20781;-65
2023/02/26 05:50:03;;;;;;;15.20;4.55;;;;;;;;;;5032172;28;20041;-66
2023/02/26 05:52:29;;;;;;;16.17;5.03;;;;;;;;;;5013197;28;20098;-64
2023/02/26 05:54:56;;;;;;;7.55;4.50;;;;;;;;;;5030159;28;20645;-64
2023/02/26 05:57:23;;;;;;;16.88;4.65;;;;;;;;;;5032130;28;20064;-67
2023/02/26 05:59:50;;;;;;;10.15;4.57;;;;;;;;;;5032292;28;20038;-65
2023/02/26 06:02:17;;;;;;;7.72;4.10;;;;;;;;;;5031394;28;20075;-66
2023/02/26 06:04:44;;;;;;;9.50;5.10;;;;;;;;;;5031160;28;20052;-65
2023/02/26 06:07:10;;;;;;;14.35;5.55;;;;;;;;;;5032248;28;20037;-65
2023/02/26 06:09:38;;;;;;;6.47;4.53;;;;;;;;;;5031688;28;20974;-62
2023/02/26 06:12:05;;;;;;;10.25;4.95;;;;;;;;;;5030180;28;20033;-66
2023/02/26 06:14:32;;;;;;;13.75;5.30;;;;;;;;;;5028024;28;20504;-64
2023/02/26 06:16:59;;;;;;;18.23;4.72;;;;;;;;;;5031776;28;20432;-65
2023/02/26 06:19:25;;;;;;;12.88;5.50;;;;;;;;;;5031218;28;20486;-64
2023/02/26 06:21:52;;;;;;;11.82;5.35;;;;;;;;;;5031238;28;21819;-67
2023/02/26 06:24:19;;;;;;;7.75;4.18;;;;;;;;;;5029669;28;20148;-67
2023/02/26 06:26:45;;;;;;;10.63;4.68;;;;;;;;;;5031424;28;20041;-67
2023/02/26 06:29:12;;;;;;;10.43;4.70;;;;;;;;;;5031427;28;20087;-64
2023/02/26 06:31:39;;;;;;;14.52;5.70;;;;;;;;;;5030771;28;20044;-65
2023/02/26 06:34:05;;;;;;;9.35;4.88;;;;;;;;;;5030259;28;20116;-66
2023/02/26 06:36:32;;;;;;;11.93;5.05;;;;;;;;;;5012007;28;20147;-64
2023/02/26 06:39:18;;;;;;;11.68;5.05;;;;;;;;;;5009813;28;20042;-66
2023/02/26 06:41:45;;;;;;;10.48;5.68;;;;;;;;;;5011112;28;20060;-66
2023/02/26 06:44:12;;;;;;;10.05;4.65;;;;;;;;;;5012752;28;20664;-65
2023/02/26 06:46:38;;;;;;;8.27;4.78;;;;;;;;;;5012644;28;20049;-64
2023/02/26 06:49:05;;;;;;;28.15;5.57;;;;;;;;;;5012165;28;20434;-66
2023/02/26 06:51:32;;;;;;;15.65;5.78;;;;;;;;;;5012198;28;20037;-65
2023/02/26 06:53:59;;;;;;;12.13;5.63;;;;;;;;;;5013640;28;20076;-64
2023/02/26 06:56:25;;;;;;;17.92;5.45;;;;;;;;;;5010318;28;20099;-63
2023/02/26 06:58:52;;;;;;;12.07;4.82;;;;;;;;;;5013009;28;20037;-64
2023/02/26 07:01:19;;;;;;;13.30;5.22;;;;;;;;;;4990613;28;20073;-65
2023/02/26 07:03:45;;;;;;;11.05;5.72;;;;;;;;;;5008275;28;20054;-64
2023/02/26 07:06:12;;;;;;;8.38;4.35;;;;;;;;;;5012469;28;20047;-63
2023/02/26 07:08:39;;;;;;;9.13;4.75;;;;;;;;;;5013735;28;20468;-63
2023/02/26 07:11:07;;;;;;;11.20;5.18;;;;;;;;;;5012631;28;20086;-64
2023/02/26 07:13:34;;;;;;;9.27;4.82;;;;;;;;;;5012941;28;20389;-65
2023/02/26 07:16:01;;;;;;;8.95;5.22;;;;;;;;;;5012967;28;20129;-64
2023/02/26 07:18:27;;;;;;;11.10;5.45;;;;;;;;;;5009871;28;20030;-64
2023/02/26 07:20:54;;;;;;;10.43;5.10;;;;;;;;;;5015284;28;20153;-63
2023/02/26 07:23:20;;;;;;;9.85;3.50;;;;;;;;;;5011770;28;20589;-64
2023/02/26 07:25:49;;;;;;;8.43;4.20;;;;;;;;;;5015728;28;20030;-64
2023/02/26 07:28:15;;;;;;;7.03;3.97;;;;;;;;;;5016226;28;20050;-66
2023/02/26 07:30:42;;;;;;;9.98;4.65;;;;;;;;;;5014768;28;20038;-64
2023/02/26 07:33:09;;;;;;;8.07;4.50;;;;;;;;;;5014683;28;20045;-64
2023/02/26 07:35:35;;;;;;;5.00;3.05;;;;;;;;;;5014596;28;20513;-65
2023/02/26 07:38:02;;;;;;;6.15;3.63;;;;;;;;;;5013632;28;20537;-63
2023/02/26 07:40:29;;;;;;;21.55;4.05;;;;;;;;;;5015400;28;20175;-63
2023/02/26 07:42:56;;;;;;;8.80;3.75;;;;;;;;;;5012527;28;20049;-66
2023/02/26 07:45:22;;;;;;;10.32;4.38;;;;;;;;;;5014091;28;20127;-63
2023/02/26 07:47:50;;;;;;;10.73;3.53;;;;;;;;;;5015067;28;20041;-64
2023/02/26 07:50:17;;;;;;;8.68;4.68;;;;;;;;;;5014638;28;20128;-64
2023/02/26 07:52:45;;;;;;;7.90;3.13;;;;;;;;;;5010903;28;20403;-67
2023/02/26 07:55:14;;;;;;;7.03;3.45;;;;;;;;;;5013166;28;20049;-64
2023/02/26 07:57:41;;;;;;;8.23;3.17;;;;;;;;;;5013158;28;20045;-66
2023/02/26 08:00:08;;;;;;;5.88;3.63;;;;;;;;;;5013735;28;20049;-64
2023/02/26 08:02:35;;;;;;;6.93;3.25;;;;;;;;;;5011971;28;20103;-66
2023/02/26 08:05:02;;;;;;;7.32;3.35;;;;;;;;;;5033270;28;20512;-62
2023/02/26 08:07:28;;;;;;;8.65;3.40;;;;;;;;;;5032269;28;20547;-63
2023/02/26 08:09:55;;;;;;;9.75;3.47;;;;;;;;;;5033078;28;20470;-62
2023/02/26 08:12:22;;;;;;;10.45;3.65;;;;;;;;;;5023101;28;20073;-62
2023/02/26 08:14:48;;;;;;;8.73;4.32;;;;;;;;;;5032799;28;20033;-65
2023/02/26 08:17:15;;;;;;;7.85;3.30;;;;;;;;;;5018822;28;20040;-65
2023/02/26 08:19:42;;;;;;;4.95;2.85;;;;;;;;;;5032834;28;20045;-63
2023/02/26 08:22:08;;;;;;;6.80;2.63;;;;;;;;;;5032592;28;20051;-66
2023/02/26 08:24:35;;;;;;;11.10;3.05;;;;;;;;;;5032841;28;20037;-63
2023/02/26 08:27:01;;;;;;;7.43;3.25;;;;;;;;;;5034910;28;20060;-63
2023/02/26 08:29:28;;;;;;;8.35;3.28;;;;;;;;;;5038063;28;20049;-65
2023/02/26 08:31:55;;;;;;;11.50;3.15;;;;;;;;;;5022259;28;20543;-64
2023/02/26 08:34:22;;;;;;;10.77;3.65;;;;;;;;;;5038548;28;20061;-65
2023/02/26 08:36:49;;;;;;;11.32;3.83;;;;;;;;;;5039154;28;20044;-65
2023/02/26 08:39:15;;;;;;;5.95;3.25;;;;;;;;;;5033102;28;20093;-64
2023/02/26 08:41:42;;;;;;;12.82;4.10;;;;;;;;;;5032638;28;20032;-64
2023/02/26 08:44:09;;;;;;;6.28;2.70;;;;;;;;;;5032139;28;20041;-65
2023/02/26 08:46:35;;;;;;;6.68;2.78;;;;;;;;;;5033309;28;20049;-64
2023/02/26 08:49:02;;;;;;;12.20;3.70;;;;;;;;;;5031888;28;20079;-64
2023/02/26 08:51:30;;;;;;;6.07;3.05;;;;;;;;;;5032370;28;20069;-63
2023/02/26 08:53:57;;;;;;;11.55;3.55;;;;;;;;;;5014386;28;20045;-65
2023/02/26 08:56:24;;;;;;;8.02;3.22;;;;;;;;;;5031252;28;20255;-66
2023/02/26 08:58:50;;;;;;;8.73;3.42;;;;;;;;;;5031929;28;20037;-66
2023/02/26 09:01:17;;;;;;;7.50;3.33;;;;;;;;;;5032554;28;20037;-65
2023/02/26 09:03:44;;;;;;;6.47;2.90;;;;;;;;;;5027056;28;20068;-65
2023/02/26 09:06:11;;;;;;;19.20;3.05;;;;;;;;;;5032313;28;20034;-65
2023/02/26 09:08:38;;;;;;;5.63;2.47;;;;;;;;;;5032083;28;20371;-65
2023/02/26 09:11:05;;;;;;;9.75;2.55;;;;;;;;;;5031132;28;20056;-66
2023/02/26 09:13:32;;;;;;;5.57;2.42;;;;;;;;;;5030186;28;20769;-65
2023/02/26 09:15:58;;;;;;;4.95;2.15;;;;;;;;;;5032464;28;20041;-65
2023/02/26 09:18:25;;;;;;;6.68;2.83;;;;;;;;;;5030165;28;20059;-66
2023/02/26 09:20:51;;;;;;;5.80;2.58;;;;;;;;;;5031658;28;20064;-66
2023/02/26 09:23:18;;;;;;;5.18;2.25;;;;;;;;;;5029498;28;20053;-71
2023/02/26 09:25:45;;;;;;;3.60;2.13;;;;;;;;;;5030763;28;20135;-65
2023/02/26 09:28:12;;;;;;;3.92;2.20;;;;;;;;;;5031575;28;20048;-64
2023/02/26 09:30:38;;;;;;;3.83;1.90;;;;;;;;;;5031507;28;20037;-64
2023/02/26 09:33:05;;;;;;;7.45;2.00;;;;;;;;;;5031231;28;20077;-64
2023/02/26 09:35:32;;;;;;;15.77;2.35;;;;;;;;;;5031529;28;20037;-64
2023/02/26 09:37:58;;;;;;;5.38;2.30;;;;;;;;;;5031431;28;20037;-64
2023/02/26 09:40:44;;;;;;;6.00;2.17;;;;;;;;;;5031134;28;20052;-64
2023/02/26 09:43:19;;;;;;;4.53;1.83;;;;;;;;;;5031872;28;20052;-66
2023/02/26 09:45:47;;;;;;;4.65;1.90;;;;;;;;;;5022081;28;20493;-66
2023/02/26 09:48:16;;;;;;;5.88;2.08;;;;;;;;;;5011557;28;20052;-65
2023/02/26 09:51:09;;;;;;;8.02;1.67;;;;;;;;;;5012018;28;20038;-64
2023/02/26 09:53:40;;;;;;;3.20;1.52;;;;;;;;;;5007047;28;20558;-66
2023/02/26 09:56:21;;;;;;;6.28;1.90;;;;;;;;;;5012203;28;20045;-65
2023/02/26 09:58:49;;;;;;;18.15;2.63;;;;;;;;;;5001426;28;20060;-66
2023/02/26 10:01:34;;;;;;;5.53;2.33;;;;;;;;;;5018124;28;20048;-64
2023/02/26 10:04:06;;;;;;;4.50;1.85;;;;;;;;;;5015499;28;20053;-65
2023/02/26 10:06:33;;;;;;;3.80;1.88;;;;;;;;;;5009748;28;20517;-66
2023/02/26 10:09:20;;;;;;;5.78;1.98;;;;;;;;;;5011902;28;20029;-66
2023/02/26 10:11:53;;;;;;;4.25;1.90;;;;;;;;;;5010768;28;20095;-65
2023/02/26 10:14:28;;;;;;;4.80;1.50;;;;;;;;;;5014632;28;20160;-65
2023/02/26 10:16:58;;;;;;;7.22;2.03;;;;;;;;;;5032220;28;20048;-64
2023/02/26 10:19:30;;;;;;;6.47;2.60;;;;;;;;;;5016257;28;20033;-64
2023/02/26 10:22:00;;;;;;;4.88;2.05;;;;;;;;;;5031306;28;20060;-65
2023/02/26 10:24:31;;;;;;;4.38;1.85;;;;;;;;;;5029258;28;20144;-64
2023/02/26 10:27:00;;;;;;;4.88;1.95;;;;;;;;;;5031413;28;20060;-68
2023/02/26 10:29:42;;;;;;;3.53;1.55;;;;;;;;;;5011381;28;20116;-65
2023/02/26 10:32:18;;;;;;;4.97;1.73;;;;;;;;;;5031939;28;20140;-64
2023/02/26 10:34:55;;;;;;;3.90;1.60;;;;;;;;;;5017729;28;20354;-66
2023/02/26 10:37:40;;;;;;;5.07;2.00;;;;;;;;;;5026682;28;20037;-65
2023/02/26 10:40:13;;;;;;;5.28;1.52;;;;;;;;;;5031527;28;20029;-66
2023/02/26 10:42:39;;;;;;;3.65;1.27;;;;;;;;;;5029688;28;20557;-64
2023/02/26 10:45:28;;;;;;;3.00;1.38;;;;;;;;;;5030572;28;20098;-63
2023/02/26 10:48:13;;;;;;;5.65;1.80;;;;;;;;;;5012330;28;20045;-64
2023/02/26 10:50:44;;;;;;;3.47;1.45;;;;;;;;;;5030610;28;20041;-62
2023/02/26 10:53:12;;;;;;;2.75;1.13;;;;;;;;;;5030562;28;20568;-62
2023/02/26 10:55:46;;;;;;;5.63;1.55;;;;;;;;;;5031793;28;20044;-65
2023/02/26 10:58:13;;;;;;;;;;;;;;;;;;5033966;28;20033;-65
2023/02/26 11:00:41;;;;;;;0.82;0.45;;;;;;;;;;5030880;28;19925;-63
2023/02/26 11:03:10;;;;;;;4.18;1.23;;;;;;;;;;5031569;28;20136;-65
2023/02/26 11:05:37;;;;;;;2.60;1.08;;;;;;;;;;5031394;28;20064;-64
2023/02/26 11:08:24;;;;;;;3.25;1.20;;;;;;;;;;5032599;28;20469;-62
2023/02/26 11:10:52;;;;;;;1.58;0.63;;;;;;;;;;5025929;28;20388;-64
2023/02/26 11:13:21;;;;;;;3.75;1.10;;;;;;;;;;5032066;28;20075;-65
2023/02/26 11:15:50;;;;;;;4.18;1.20;;;;;;;;;;5031679;28;20505;-63
2023/02/26 11:18:19;;;;;;;2.28;1.00;;;;;;;;;;5033192;28;21376;-65
2023/02/26 11:20:46;;;;;;;2.47;0.93;;;;;;;;;;5032040;28;20732;-66
2023/02/26 11:23:16;;;;;;;4.35;1.63;;;;;;;;;;5033826;28;20045;-65
2023/02/26 11:25:43;;;;;;;2.30;1.13;;;;;;;;;;5024607;28;20130;-65
2023/02/26 11:28:21;;;;;;;4.65;1.40;;;;;;;;;;5014862;28;20049;-66
2023/02/26 11:30:48;;;;;;;5.07;1.05;;;;;;;;;;5018286;28;20168;-64
2023/02/26 11:33:21;;;;;;;2.53;0.95;;;;;;;;;;5022220;28;20049;-66
2023/02/26 11:35:48;;;;;;;2.27;0.77;;;;;;;;;;5035836;28;20457;-65
2023/02/26 11:38:17;;;;;;;3.10;1.02;;;;;;;;;;5033958;28;20489;-64
2023/02/26 11:40:47;;;;;;;5.65;1.08;;;;;;;;;;5034268;28;20049;-66
2023/02/26 11:43:18;;;;;;;2.50;0.93;;;;;;;;;;5033366;28;20511;-64
2023/02/26 11:45:46;;;;;;;4.18;1.50;;;;;;;;;;5026492;28;20183;-64
2023/02/26 11:48:16;;;;;;;2.60;1.05;;;;;;;;;;5035220;28;20048;-65
2023/02/26 11:50:44;;;;;;;4.18;1.27;;;;;;;;;;5034248;28;20045;-63
2023/02/26 11:53:20;;;;;;;4.18;1.73;;;;;;;;;;5016296;28;20480;-65
2023/02/26 11:55:52;;;;;;;4.28;0.88;;;;;;;;;;5024687;28;20029;-65
2023/02/26 11:58:23;;;;;;;5.85;1.45;;;;;;;;;;5019825;28;20052;-64
2023/02/26 12:00:54;;;;;;;2.97;0.90;;;;;;;;;;5011536;28;20033;-66
2023/02/26 12:03:22;;;;;;;2.92;1.05;;;;;;;;;;5032253;28;20054;-64
2023/02/26 12:05:49;;;;;;;2.20;0.85;;;;;;;;;;4994728;28;20053;-63
2023/02/26 12:08:30;;;;;;;1.83;0.73;;;;;;;;;;4995070;28;20050;-63
2023/02/26 12:11:16;;;;;;;3.28;1.23;;;;;;;;;;4993774;28;20041;-63
2023/02/26 12:14:01;;;;;;;2.97;1.08;;;;;;;;;;4985944;28;20042;-63
2023/02/26 12:16:36;;;;;;;2.25;0.88;;;;;;;;;;4991616;28;20081;-63
2023/02/26 12:19:25;;;;;;;1.40;0.60;;;;;;;;;;4983122;28;20058;-63
2023/02/26 12:22:12;;;;;;;2.00;0.80;;;;;;;;;;4992253;28;20043;-65
2023/02/26 12:24:47;;;;;;;2.28;0.98;;;;;;;;;;4970833;28;20049;-64
2023/02/26 12:27:17;;;;;;;2.15;0.70;;;;;;;;;;4994084;28;20041;-64
2023/02/26 12:29:44;;;;;;;1.65;0.60;;;;;;;;;;4984819;28;20566;-65
2023/02/26 12:32:10;;;;;;;2.20;0.80;;;;;;;;;;4994649;28;20144;-66
2023/02/26 12:34:56;;;;;;;3.67;0.70;;;;;;;;;;4992232;28;20483;-64
2023/02/26 12:37:23;;;;;;;1.52;0.60;;;;;;;;;;4994818;28;20156;-64
2023/02/26 12:40:07;;;;;;;2.80;0.68;;;;;;;;;;4993333;28;20038;-65
2023/02/26 12:42:43;;;;;;;1.98;0.73;;;;;;;;;;4994469;28;20049;-65
2023/02/26 12:45:20;;;;;;;1.90;0.70;;;;;;;;;;4993802;28;20159;-63
2023/02/26 12:47:55;;;;;;;2.10;0.70;;;;;;;;;;4979410;28;20096;-65
2023/02/26 12:50:24;;;;;;;3.20;0.70;;;;;;;;;;4983676;28;20502;-64
2023/02/26 12:52:51;;;;;;;1.95;0.65;;;;;;;;;;4984578;28;20037;-64
2023/02/26 12:55:24;;;;;;;3.38;0.70;;;;;;;;;;5008159;28;20144;-65
2023/02/26 12:57:51;;;;;;;;;;;;;;;;;;4993035;28;20046;-65
2023/02/26 13:00:20;;;;;;;1.48;0.60;;;;;;;;;;4993673;28;20415;-63
2023/02/26 13:02:50;;;;;;;0.73;0.35;;;;;;;;;;4994298;28;20050;-66
2023/02/26 13:05:17;;;;;;;2.13;0.73;;;;;;;;;;5010318;28;20123;-64
2023/02/26 13:07:48;;;;;;;4.60;0.80;;;;;;;;;;5011867;28;20041;-63
2023/02/26 13:10:28;;;;;;;2.60;0.63;;;;;;;;;;5012310;28;20038;-65
2023/02/26 13:13:02;;;;;;;4.88;0.93;;;;;;;;;;5011253;28;20041;-65
2023/02/26 13:15:53;;;;;;;2.10;0.70;;;;;;;;;;5012253;28;20157;-64
2023/02/26 13:18:22;;;;;;;6.32;1.02;;;;;;;;;;5005815;28;20111;-64
2023/02/26 13:20:57;;;;;;;1.60;0.50;;;;;;;;;;5011637;28;20119;-62
2023/02/26 13:23:25;;;;;;;1.65;0.70;;;;;;;;;;5011901;28;20053;-63
2023/02/26 13:25:57;;;;;;;1.80;0.55;;;;;;;;;;5012464;28;20060;-63
2023/02/26 13:28:29;;;;;;;3.20;1.00;;;;;;;;;;5012911;28;20049;-63
2023/02/26 13:30:56;;;;;;;4.47;1.20;;;;;;;;;;5012559;28;20088;-66
2023/02/26 13:33:27;;;;;;;3.95;1.25;;;;;;;;;;5012466;28;20079;-63
2023/02/26 13:35:54;;;;;;;2.83;0.82;;;;;;;;;;5013224;28;20497;-64
2023/02/26 13:38:41;;;;;;;2.08;0.70;;;;;;;;;;5027373;28;20167;-64
2023/02/26 13:41:11;;;;;;;1.15;0.52;;;;;;;;;;4991823;28;20172;-64
2023/02/26 13:43:56;;;;;;;2.30;0.85;;;;;;;;;;5010052;28;20146;-62
2023/02/26 13:46:41;;;;;;;4.53;1.00;;;;;;;;;;5011486;28;20126;-64
2023/02/26 13:49:10;;;;;;;2.67;0.70;;;;;;;;;;5013178;28;20472;-63
2023/02/26 13:51:39;;;;;;;1.90;0.70;;;;;;;;;;5011166;28;20036;-62
2023/02/26 13:54:28;;;;;;;6.00;1.10;;;;;;;;;;5011598;28;20065;-61
2023/02/26 13:56:55;;;;;;;1.55;0.60;;;;;;;;;;5010000;28;20049;-62
2023/02/26 13:59:36;;;;;;;2.75;0.77;;;;;;;;;;5027885;28;20038;-63
2023/02/26 14:02:22;;;;;;;5.43;1.20;;;;;;;;;;5011209;28;20164;-62
2023/02/26 14:04:59;;;;;;;2.70;0.95;;;;;;;;;;5021828;28;20779;-63
2023/02/26 14:07:44;;;;;;;3.40;0.80;;;;;;;;;;5031363;28;20055;-65
2023/02/26 14:10:24;;;;;;;2.92;1.13;;;;;;;;;;5031544;28;20490;-64
2023/02/26 14:13:11;;;;;;;2.13;0.85;;;;;;;;;;5023395;28;20052;-62
2023/02/26 14:15:42;;;;;;;2.53;0.93;;;;;;;;;;5032090;28;20037;-63
2023/02/26 14:18:41;;;;;;;2.50;0.88;;;;;;;;;;5033128;28;20076;-64
2023/02/26 14:21:26;;;;;;;2.38;1.00;;;;;;;;;;4987038;28;20048;-63
2023/02/26 14:24:05;;;;;;;2.97;1.00;;;;;;;;;;5038197;28;20040;-64
2023/02/26 14:26:34;;;;;;;2.53;0.93;;;;;;;;;;5016891;28;20060;-64
2023/02/26 14:29:09;;;;;;;3.00;1.05;;;;;;;;;;5033050;28;20045;-64
2023/02/26 14:31:56;;;;;;;3.03;1.05;;;;;;;;;;5032577;28;20049;-64
2023/02/26 14:34:26;;;;;;;6.18;1.17;;;;;;;;;;4987914;28;20559;-65
2023/02/26 14:36:58;;;;;;;5.22;1.60;;;;;;;;;;5014178;28;20041;-65
2023/02/26 14:39:27;;;;;;;3.28;1.17;;;;;;;;;;5032193;28;20052;-64
2023/02/26 14:41:59;;;;;;;2.60;1.20;;;;;;;;;;5032002;28;20037;-66
2023/02/26 14:44:27;;;;;;;2.90;1.17;;;;;;;;;;5033294;28;20114;-63
2023/02/26 14:46:54;;;;;;;5.32;1.73;;;;;;;;;;5031455;28;21297;-64
2023/02/26 14:49:32;;;;;;;3.97;1.20;;;;;;;;;;5031510;28;20041;-64
2023/02/26 14:52:06;;;;;;;6.65;1.13;;;;;;;;;;5032540;28;20060;-65
2023/02/26 14:54:43;;;;;;;7.78;1.27;;;;;;;;;;5030556;28;20699;-66
2023/02/26 14:57:18;;;;;;;3.63;1.33;;;;;;;;;;5031659;28;20546;-63
2023/02/26 14:59:51;;;;;;;3.88;1.45;;;;;;;;;;5013828;28;20053;-69
2023/02/26 15:02:17;;;;;;;4.53;1.50;;;;;;;;;;5032901;28;20055;-65